createdAt,value
2022-08-17T00:00:44.136Z,13.10
2022-08-17T00:01:18.367Z,12.80
2022-08-17T00:02:26.233Z,11.90
2022-08-17T00:03:18.874Z,11.40
2022-08-17T00:04:18.186Z,11.40
2022-08-17T00:05:18.477Z,11.50
2022-08-17T00:06:18.646Z,8.80
2022-08-17T00:07:18.967Z,12.60
2022-08-17T00:08:19.298Z,10.50
2022-08-17T00:09:19.630Z,12.80
2022-08-17T00:10:19.798Z,10.60
2022-08-17T00:11:20.122Z,10.70
2022-08-17T00:12:43.395Z,12.30
2022-08-17T00:13:21.762Z,11.80
2022-08-17T00:14:21.060Z,13.00
2022-08-17T00:15:21.321Z,12.10
2022-08-17T00:16:21.659Z,10.50
2022-08-17T00:17:22.960Z,10.10
2022-08-17T00:19:06.130Z,12.50
2022-08-17T00:19:23.543Z,14.10
2022-08-17T00:20:29.173Z,10.10
2022-08-17T00:21:25.233Z,11.60
2022-08-17T00:22:33.776Z,10.90
2022-08-17T00:23:24.765Z,12.00
2022-08-17T00:24:24.052Z,11.20
2022-08-17T00:25:24.406Z,11.10
2022-08-17T00:26:43.701Z,11.50
2022-08-17T00:27:26.016Z,44.40
2022-08-17T00:28:25.423Z,17.20
2022-08-17T00:29:25.580Z,14.30
2022-08-17T00:30:25.886Z,8.50
2022-08-17T00:31:26.179Z,12.00
2022-08-17T00:33:10.908Z,13.50
2022-08-17T00:33:27.984Z,13.20
2022-08-17T00:34:27.789Z,10.00
2022-08-17T00:35:27.304Z,9.60
2022-08-17T00:36:27.644Z,13.50
2022-08-17T00:37:27.927Z,13.90
2022-08-17T00:38:28.243Z,12.10
2022-08-17T00:39:28.550Z,10.70
2022-08-17T00:40:40.685Z,16.20
2022-08-17T00:41:30.027Z,12.00
2022-08-17T00:42:31.306Z,12.30
2022-08-17T00:43:29.575Z,15.00
2022-08-17T00:44:30.373Z,11.10
2022-08-17T00:45:30.285Z,11.50
2022-08-17T00:46:30.547Z,10.20
2022-08-17T00:47:30.834Z,12.40
2022-08-17T00:48:31.111Z,16.40
2022-08-17T00:49:31.423Z,10.80
2022-08-17T00:50:31.749Z,12.00
2022-08-17T00:51:32.149Z,11.20
2022-08-17T00:52:32.312Z,12.00
2022-08-17T00:53:32.614Z,11.60
2022-08-17T00:54:32.898Z,10.70
2022-08-17T00:55:34.222Z,10.00
2022-08-17T00:56:34.360Z,12.00
2022-08-17T00:57:33.788Z,11.30
2022-08-17T00:58:36.325Z,10.60
2022-08-17T00:59:34.365Z,10.50
2022-08-17T01:00:34.669Z,13.30
2022-08-17T01:01:34.981Z,11.80
2022-08-17T01:02:42.384Z,13.20
2022-08-17T01:03:36.534Z,11.60
2022-08-17T01:04:35.860Z,13.10
2022-08-17T01:05:36.164Z,13.70
2022-08-17T01:06:36.417Z,12.00
2022-08-17T01:07:38.077Z,13.50
2022-08-17T01:08:37.048Z,10.70
2022-08-17T01:09:37.371Z,8.50
2022-08-17T01:10:58.798Z,10.60
2022-08-17T01:11:39.012Z,11.10
2022-08-17T01:12:38.380Z,12.40
2022-08-17T01:13:41.130Z,12.50
2022-08-17T01:14:38.931Z,14.20
2022-08-17T01:15:39.239Z,13.00
2022-08-17T01:16:39.486Z,11.90
2022-08-17T01:17:39.812Z,12.20
2022-08-17T01:18:40.095Z,15.50
2022-08-17T01:19:40.507Z,15.10
2022-08-17T01:20:48.159Z,13.70
2022-08-17T01:21:41.944Z,16.70
2022-08-17T01:22:41.244Z,14.60
2022-08-17T01:23:41.542Z,18.40
2022-08-17T01:24:41.889Z,28.60
2022-08-17T01:25:42.188Z,31.60
2022-08-17T01:26:42.497Z,29.40
2022-08-17T01:27:42.805Z,33.80
2022-08-17T01:28:54.542Z,41.90
2022-08-17T01:29:44.489Z,29.70
2022-08-17T01:30:57.013Z,34.60
2022-08-17T01:31:44.970Z,27.30
2022-08-17T01:32:44.297Z,24.60
2022-08-17T01:33:44.633Z,18.10
2022-08-17T01:34:50.523Z,22.10
2022-08-17T01:35:46.297Z,21.50
2022-08-17T01:36:45.502Z,20.50
2022-08-17T01:37:45.764Z,22.40
2022-08-17T01:38:46.120Z,33.10
2022-08-17T01:39:46.495Z,23.70
2022-08-17T01:40:46.704Z,23.10
2022-08-17T01:41:47.025Z,21.80
2022-08-17T01:42:47.326Z,22.30
2022-08-17T01:43:47.640Z,22.60
2022-08-17T01:44:47.967Z,24.50
2022-08-17T01:45:48.221Z,20.30
2022-08-17T01:46:49.592Z,23.10
2022-08-17T01:47:48.747Z,26.00
2022-08-17T01:48:49.054Z,25.10
2022-08-17T01:49:49.381Z,21.30
2022-08-17T01:50:49.716Z,22.40
2022-08-17T01:51:49.997Z,16.60
2022-08-17T01:52:50.404Z,22.00
2022-08-17T01:53:50.623Z,21.50
2022-08-17T01:54:50.867Z,29.70
2022-08-17T01:55:51.225Z,25.80
2022-08-17T01:56:51.504Z,26.80
2022-08-17T01:57:51.824Z,19.70
2022-08-17T01:58:52.091Z,26.40
2022-08-17T01:59:52.402Z,24.50
2022-08-17T02:01:00.140Z,23.90
2022-08-17T02:01:54.071Z,26.10
2022-08-17T02:02:53.384Z,22.60
2022-08-17T02:04:00.603Z,24.10
2022-08-17T02:04:54.995Z,22.90
2022-08-17T02:05:54.278Z,22.50
2022-08-17T02:06:54.746Z,15.30
2022-08-17T02:08:00.225Z,17.50
2022-08-17T02:09:03.134Z,22.20
2022-08-17T02:09:56.477Z,17.80
2022-08-17T02:10:55.833Z,20.40
2022-08-17T02:11:56.306Z,23.70
2022-08-17T02:12:56.460Z,18.10
2022-08-17T02:14:02.916Z,18.90
2022-08-17T02:14:58.046Z,21.60
2022-08-17T02:15:57.319Z,16.10
2022-08-17T02:16:57.673Z,21.00
2022-08-17T02:17:57.974Z,17.20
2022-08-17T02:18:58.239Z,20.30
2022-08-17T02:19:58.555Z,16.60
2022-08-17T02:20:58.877Z,17.40
2022-08-17T02:21:59.163Z,21.50
2022-08-17T02:22:59.463Z,19.60
2022-08-17T02:23:59.726Z,17.30
2022-08-17T02:25:02.332Z,16.70
2022-08-17T02:26:00.384Z,15.70
2022-08-17T02:27:00.647Z,18.20
2022-08-17T02:28:00.977Z,15.00
2022-08-17T02:29:01.305Z,18.40
2022-08-17T02:30:01.579Z,13.10
2022-08-17T02:31:03.234Z,14.70
2022-08-17T02:32:02.231Z,18.00
2022-08-17T02:33:04.090Z,13.30
2022-08-17T02:34:04.687Z,14.60
2022-08-17T02:35:03.026Z,14.00
2022-08-17T02:36:03.346Z,16.90
2022-08-17T02:37:03.585Z,19.90
2022-08-17T02:38:03.916Z,14.40
2022-08-17T02:39:04.198Z,15.60
2022-08-17T02:40:04.591Z,13.20
2022-08-17T02:41:04.762Z,15.20
2022-08-17T02:42:05.052Z,15.90
2022-08-17T02:43:05.356Z,17.50
2022-08-17T02:44:05.740Z,15.60
2022-08-17T02:45:05.879Z,14.10
2022-08-17T02:46:06.215Z,16.20
2022-08-17T02:47:06.493Z,12.50
2022-08-17T02:48:06.825Z,15.70
2022-08-17T02:49:07.125Z,18.00
2022-08-17T02:50:07.466Z,17.80
2022-08-17T02:51:07.698Z,20.90
2022-08-17T02:52:08.051Z,21.30
2022-08-17T02:53:08.371Z,23.30
2022-08-17T02:54:39.737Z,21.10
2022-08-17T02:55:09.955Z,21.30
2022-08-17T02:56:09.251Z,25.70
2022-08-17T02:57:09.543Z,30.30
2022-08-17T02:58:09.859Z,25.20
2022-08-17T02:59:10.038Z,33.30
2022-08-17T03:00:10.398Z,23.40
2022-08-17T03:01:10.807Z,23.60
2022-08-17T03:02:11.024Z,22.70
2022-08-17T03:03:11.340Z,20.30
2022-08-17T03:04:11.626Z,21.10
2022-08-17T03:05:11.939Z,19.20
2022-08-17T03:06:12.270Z,17.90
2022-08-17T03:07:12.581Z,20.10
2022-08-17T03:08:13.169Z,16.60
2022-08-17T03:09:13.079Z,18.60
2022-08-17T03:10:13.322Z,21.10
2022-08-17T03:11:13.732Z,21.70
2022-08-17T03:12:13.996Z,22.50
2022-08-17T03:13:14.290Z,20.30
2022-08-17T03:14:14.587Z,19.80
2022-08-17T03:15:14.925Z,21.20
2022-08-17T03:16:15.203Z,15.50
2022-08-17T03:17:17.473Z,20.50
2022-08-17T03:18:24.195Z,19.00
2022-08-17T03:19:17.099Z,23.20
2022-08-17T03:20:16.292Z,19.70
2022-08-17T03:21:16.643Z,20.20
2022-08-17T03:22:35.315Z,20.10
2022-08-17T03:23:18.224Z,18.10
2022-08-17T03:24:18.100Z,21.50
2022-08-17T03:25:19.521Z,23.30
2022-08-17T03:26:18.175Z,19.90
2022-08-17T03:27:18.359Z,17.60
2022-08-17T03:28:18.689Z,26.40
2022-08-17T03:29:19.009Z,19.30
2022-08-17T03:30:19.293Z,17.90
2022-08-17T03:31:19.574Z,20.60
2022-08-17T03:32:19.890Z,17.20
2022-08-17T03:33:20.196Z,21.10
2022-08-17T03:34:20.551Z,17.20
2022-08-17T03:35:20.856Z,22.30
2022-08-17T03:36:21.071Z,16.30
2022-08-17T03:37:21.391Z,15.30
2022-08-17T03:38:21.703Z,19.80
2022-08-17T03:39:22.021Z,18.50
2022-08-17T03:40:34.230Z,16.80
2022-08-17T03:41:23.632Z,17.60
2022-08-17T03:42:31.792Z,19.80
2022-08-17T03:43:24.208Z,18.00
2022-08-17T03:44:23.543Z,15.80
2022-08-17T03:45:23.770Z,17.10
2022-08-17T03:46:34.568Z,19.40
2022-08-17T03:47:25.518Z,14.70
2022-08-17T03:48:24.765Z,17.40
2022-08-17T03:49:25.066Z,20.10
2022-08-17T03:50:25.370Z,19.20
2022-08-17T03:51:25.687Z,15.80
2022-08-17T03:52:26.934Z,16.00
2022-08-17T03:53:26.329Z,15.50
2022-08-17T03:54:26.646Z,12.80
2022-08-17T03:55:29.430Z,17.10
2022-08-17T03:56:28.263Z,16.10
2022-08-17T03:57:27.476Z,16.70
2022-08-17T03:58:27.670Z,15.90
2022-08-17T03:59:27.885Z,15.30
2022-08-17T04:00:28.249Z,12.20
2022-08-17T04:01:28.496Z,13.40
2022-08-17T04:02:28.740Z,14.10
2022-08-17T04:03:29.060Z,15.90
2022-08-17T04:04:29.437Z,15.40
2022-08-17T04:05:29.757Z,17.10
2022-08-17T04:06:29.922Z,14.40
2022-08-17T04:07:31.438Z,14.60
2022-08-17T04:08:30.492Z,13.20
2022-08-17T04:09:30.701Z,14.40
2022-08-17T04:10:31.042Z,14.20
2022-08-17T04:11:31.371Z,13.50
2022-08-17T04:12:31.585Z,12.40
2022-08-17T04:13:31.794Z,12.10
2022-08-17T04:14:32.160Z,12.00
2022-08-17T04:15:32.413Z,14.70
2022-08-17T04:16:32.629Z,12.30
2022-08-17T04:17:32.879Z,12.40
2022-08-17T04:18:33.662Z,14.50
2022-08-17T04:19:33.389Z,14.50
2022-08-17T04:20:33.850Z,13.50
2022-08-17T04:21:33.854Z,14.30
2022-08-17T04:22:34.519Z,15.60
2022-08-17T04:23:34.567Z,16.60
2022-08-17T04:24:34.801Z,15.60
2022-08-17T04:25:35.147Z,19.50
2022-08-17T04:26:53.962Z,20.20
2022-08-17T04:27:43.881Z,18.90
2022-08-17T04:28:36.071Z,16.50
2022-08-17T04:29:54.468Z,21.10
2022-08-17T04:30:37.651Z,19.50
2022-08-17T04:31:36.915Z,20.00
2022-08-17T04:33:03.874Z,21.70
2022-08-17T04:33:38.473Z,19.00
2022-08-17T04:34:37.858Z,17.50
2022-08-17T04:35:38.139Z,20.40
2022-08-17T04:36:38.983Z,16.70
2022-08-17T04:37:38.676Z,17.10
2022-08-17T04:38:39.258Z,17.70
2022-08-17T04:39:39.292Z,14.60
2022-08-17T04:40:39.525Z,15.10
2022-08-17T04:41:39.814Z,16.70
2022-08-17T04:42:40.217Z,18.30
2022-08-17T04:43:40.613Z,16.40
2022-08-17T04:44:41.105Z,13.90
2022-08-17T04:45:40.877Z,14.70
2022-08-17T04:46:42.263Z,16.90
2022-08-17T04:47:42.377Z,15.40
2022-08-17T04:48:43.093Z,15.70
2022-08-17T04:49:42.426Z,13.90
2022-08-17T04:50:42.327Z,14.80
2022-08-17T04:51:51.651Z,14.40
2022-08-17T04:52:43.837Z,16.60
2022-08-17T04:53:43.065Z,14.70
2022-08-17T04:54:43.302Z,17.40
2022-08-17T04:55:43.915Z,16.60
2022-08-17T04:56:45.033Z,16.10
2022-08-17T04:57:45.242Z,19.10
2022-08-17T04:58:47.178Z,14.70
2022-08-17T04:59:44.631Z,16.40
2022-08-17T05:00:45.053Z,15.70
2022-08-17T05:01:45.310Z,17.80
2022-08-17T05:02:50.048Z,17.50
2022-08-17T05:03:46.851Z,16.80
2022-08-17T05:04:45.984Z,16.00
2022-08-17T05:05:46.300Z,12.90
2022-08-17T05:06:46.596Z,19.80
2022-08-17T05:07:46.787Z,15.90
2022-08-17T05:08:47.085Z,18.40
2022-08-17T05:09:47.297Z,18.50
2022-08-17T05:10:47.543Z,20.50
2022-08-17T05:11:47.798Z,16.50
2022-08-17T05:12:48.062Z,14.20
2022-08-17T05:13:48.308Z,13.70
2022-08-17T05:14:48.556Z,13.90
2022-08-17T05:15:48.822Z,64.10
2022-08-17T05:16:49.067Z,19.40
2022-08-17T05:17:49.298Z,18.80
2022-08-17T05:18:49.610Z,14.10
2022-08-17T05:19:51.987Z,14.30
2022-08-17T05:20:50.085Z,19.40
2022-08-17T05:21:50.350Z,18.10
2022-08-17T05:22:50.847Z,17.00
2022-08-17T05:23:54.812Z,16.80
2022-08-17T05:24:53.623Z,18.10
2022-08-17T05:25:51.563Z,17.90
2022-08-17T05:26:51.955Z,20.50
2022-08-17T05:27:52.184Z,21.70
2022-08-17T05:28:52.464Z,17.70
2022-08-17T05:29:52.699Z,19.80
2022-08-17T05:30:52.936Z,19.10
2022-08-17T05:31:53.214Z,15.60
2022-08-17T05:32:53.631Z,15.90
2022-08-17T05:33:53.705Z,16.80
2022-08-17T05:34:53.971Z,17.80
2022-08-17T05:35:54.226Z,17.00
2022-08-17T05:36:54.497Z,20.20
2022-08-17T05:37:54.799Z,17.50
2022-08-17T05:38:54.967Z,17.80
2022-08-17T05:39:55.351Z,17.30
2022-08-17T05:40:55.558Z,23.20
2022-08-17T05:41:55.919Z,19.00
2022-08-17T05:42:56.156Z,19.70
2022-08-17T05:43:56.786Z,19.80
2022-08-17T05:44:56.713Z,18.30
2022-08-17T05:45:56.962Z,21.90
2022-08-17T05:46:57.218Z,17.80
2022-08-17T05:47:57.492Z,17.60
2022-08-17T05:48:57.757Z,19.60
2022-08-17T05:49:58.009Z,20.70
2022-08-17T05:50:58.241Z,18.70
2022-08-17T05:51:58.485Z,17.90
2022-08-17T05:52:58.753Z,19.30
2022-08-17T05:53:58.984Z,15.10
2022-08-17T05:54:59.293Z,15.90
2022-08-17T05:55:59.582Z,13.90
2022-08-17T05:57:00.002Z,17.90
2022-08-17T05:58:00.036Z,19.20
2022-08-17T05:59:00.362Z,14.70
2022-08-17T06:00:00.576Z,17.10
2022-08-17T06:01:01.005Z,15.70
2022-08-17T06:02:01.252Z,17.70
2022-08-17T06:03:01.489Z,15.10
2022-08-17T06:04:01.768Z,17.00
2022-08-17T06:05:01.990Z,16.80
2022-08-17T06:06:02.271Z,20.10
2022-08-17T06:07:02.486Z,16.40
2022-08-17T06:08:02.874Z,14.70
2022-08-17T06:09:03.137Z,17.30
2022-08-17T06:10:03.388Z,20.70
2022-08-17T06:11:03.738Z,15.00
2022-08-17T06:12:03.970Z,13.60
2022-08-17T06:13:04.280Z,13.40
2022-08-17T06:14:04.543Z,14.10
2022-08-17T06:15:04.855Z,22.80
2022-08-17T06:16:05.101Z,27.70
2022-08-17T06:17:06.319Z,20.60
2022-08-17T06:18:05.573Z,19.40
2022-08-17T06:19:05.833Z,17.10
2022-08-17T06:20:06.080Z,17.70
2022-08-17T06:21:06.451Z,16.40
2022-08-17T06:22:06.663Z,14.20
2022-08-17T06:23:06.903Z,13.90
2022-08-17T06:24:07.151Z,15.10
2022-08-17T06:25:10.298Z,14.00
2022-08-17T06:26:07.732Z,14.50
2022-08-17T06:27:07.955Z,17.70
2022-08-17T06:28:08.216Z,14.30
2022-08-17T06:29:08.877Z,14.60
2022-08-17T06:30:09.813Z,13.80
2022-08-17T06:31:09.057Z,15.90
2022-08-17T06:32:09.281Z,17.90
2022-08-17T06:33:09.622Z,12.10
2022-08-17T06:34:09.894Z,18.90
2022-08-17T06:35:10.174Z,12.30
2022-08-17T06:36:10.462Z,11.80
2022-08-17T06:37:10.715Z,13.90
2022-08-17T06:38:34.959Z,11.70
2022-08-17T06:39:12.264Z,14.30
2022-08-17T06:40:11.594Z,15.60
2022-08-17T06:41:11.836Z,11.20
2022-08-17T06:43:04.089Z,14.00
2022-08-17T06:43:14.109Z,13.30
2022-08-17T06:44:12.610Z,17.10
2022-08-17T06:45:13.869Z,14.60
2022-08-17T06:46:13.289Z,15.00
2022-08-17T06:47:13.498Z,10.50
2022-08-17T06:48:13.810Z,12.80
2022-08-17T06:49:14.003Z,12.40
2022-08-17T06:50:14.245Z,13.30
2022-08-17T06:51:14.495Z,11.90
2022-08-17T06:52:46.943Z,15.70
2022-08-17T06:53:15.979Z,12.10
2022-08-17T06:54:15.270Z,15.30
2022-08-17T06:55:18.784Z,14.90
2022-08-17T06:56:15.830Z,15.80
2022-08-17T06:57:16.069Z,15.60
2022-08-17T06:58:16.968Z,14.90
2022-08-17T06:59:16.696Z,15.10
2022-08-17T07:00:16.969Z,17.00
2022-08-17T07:01:17.264Z,12.60
2022-08-17T07:02:17.474Z,14.80
2022-08-17T07:03:17.730Z,17.20
2022-08-17T07:04:17.957Z,13.60
2022-08-17T07:05:18.360Z,13.20
2022-08-17T07:06:18.603Z,14.60
2022-08-17T07:07:18.857Z,14.20
2022-08-17T07:08:19.095Z,14.00
2022-08-17T07:09:19.386Z,15.00
2022-08-17T07:10:19.625Z,18.10
2022-08-17T07:11:19.886Z,16.20
2022-08-17T07:12:20.117Z,18.50
2022-08-17T07:13:20.374Z,14.80
2022-08-17T07:14:20.664Z,15.70
2022-08-17T07:15:20.962Z,16.40
2022-08-17T07:16:22.057Z,18.80
2022-08-17T07:17:21.578Z,18.50
2022-08-17T07:18:22.810Z,15.60
2022-08-17T07:19:22.126Z,18.40
2022-08-17T07:20:22.362Z,14.40
2022-08-17T07:21:26.212Z,14.30
2022-08-17T07:22:22.858Z,14.20
2022-08-17T07:23:23.108Z,14.70
2022-08-17T07:24:29.530Z,18.00
2022-08-17T07:25:24.628Z,13.20
2022-08-17T07:26:23.937Z,16.70
2022-08-17T07:27:24.213Z,12.70
2022-08-17T07:28:24.458Z,14.10
2022-08-17T07:29:25.624Z,12.60
2022-08-17T07:30:25.195Z,14.80
2022-08-17T07:31:25.334Z,16.10
2022-08-17T07:32:25.549Z,11.10
2022-08-17T07:33:26.256Z,17.50
2022-08-17T07:34:26.232Z,14.70
2022-08-17T07:35:31.265Z,14.40
2022-08-17T07:36:29.955Z,12.90
2022-08-17T07:37:27.006Z,14.20
2022-08-17T07:38:27.317Z,12.40
2022-08-17T07:39:27.776Z,13.20
2022-08-17T07:40:27.908Z,18.20
2022-08-17T07:41:57.597Z,14.70
2022-08-17T07:42:29.437Z,13.00
2022-08-17T07:43:29.579Z,17.50
2022-08-17T07:44:28.993Z,13.10
2022-08-17T07:45:29.242Z,15.00
2022-08-17T07:46:29.467Z,13.90
2022-08-17T07:47:29.692Z,14.60
2022-08-17T07:48:29.982Z,14.10
2022-08-17T07:49:30.201Z,14.00
2022-08-17T07:50:30.540Z,13.90
2022-08-17T07:51:31.681Z,15.30
2022-08-17T07:52:50.398Z,12.80
2022-08-17T07:53:32.305Z,12.70
2022-08-17T07:54:31.592Z,15.40
2022-08-17T07:55:31.823Z,15.80
2022-08-17T07:56:34.438Z,13.30
2022-08-17T07:57:32.401Z,14.00
2022-08-17T07:58:32.652Z,16.70
2022-08-17T07:59:33.706Z,11.40
2022-08-17T08:00:33.179Z,15.10
2022-08-17T08:01:41.888Z,11.70
2022-08-17T08:02:34.734Z,14.70
2022-08-17T08:03:34.049Z,14.40
2022-08-17T08:05:49.470Z,15.60
2022-08-17T08:06:35.771Z,16.80
2022-08-17T08:07:35.117Z,15.70
2022-08-17T08:08:35.306Z,13.90
2022-08-17T08:09:35.678Z,12.70
2022-08-17T08:10:35.786Z,13.00
2022-08-17T08:11:36.014Z,16.50
2022-08-17T08:12:36.363Z,18.00
2022-08-17T08:13:36.673Z,12.90
2022-08-17T08:14:36.879Z,14.60
2022-08-17T08:15:37.182Z,13.80
2022-08-17T08:16:37.386Z,14.40
2022-08-17T08:17:37.646Z,16.40
2022-08-17T08:18:53.588Z,12.60
2022-08-17T08:19:39.651Z,15.10
2022-08-17T08:20:52.168Z,15.00
2022-08-17T08:21:39.684Z,15.40
2022-08-17T08:22:39.068Z,20.70
2022-08-17T08:23:39.321Z,18.00
2022-08-17T08:24:39.554Z,13.10
2022-08-17T08:25:39.876Z,21.10
2022-08-17T08:26:40.165Z,18.10
2022-08-17T08:27:40.433Z,18.40
2022-08-17T08:28:40.766Z,19.30
2022-08-17T08:29:40.985Z,20.90
2022-08-17T08:30:41.212Z,18.10
2022-08-17T08:31:42.444Z,19.00
2022-08-17T08:32:41.726Z,17.70
2022-08-17T08:33:41.982Z,17.90
2022-08-17T08:34:58.654Z,24.30
2022-08-17T08:35:43.434Z,17.60
2022-08-17T08:37:15.891Z,19.30
2022-08-17T08:37:43.988Z,17.10
2022-08-17T08:38:43.262Z,18.80
2022-08-17T08:39:43.563Z,16.50
2022-08-17T08:40:43.831Z,22.90
2022-08-17T08:41:44.052Z,19.30
2022-08-17T08:42:44.380Z,16.10
2022-08-17T08:43:47.354Z,20.10
2022-08-17T08:45:00.663Z,20.80
2022-08-17T08:45:46.193Z,19.50
2022-08-17T08:46:45.444Z,20.60
2022-08-17T08:47:45.787Z,18.90
2022-08-17T08:48:56.589Z,21.90
2022-08-17T08:50:03.556Z,22.80
2022-08-17T08:50:47.499Z,20.20
2022-08-17T08:51:46.789Z,17.50
2022-08-17T08:52:47.045Z,17.40
2022-08-17T08:53:47.255Z,17.30
2022-08-17T08:54:47.490Z,17.50
2022-08-17T08:55:47.771Z,18.30
2022-08-17T08:57:11.962Z,19.20
2022-08-17T08:57:49.337Z,17.50
2022-08-17T08:58:48.538Z,18.10
2022-08-17T08:59:51.212Z,16.80
2022-08-17T09:00:50.113Z,19.70
2022-08-17T09:01:49.401Z,16.10
2022-08-17T09:02:49.614Z,19.80
2022-08-17T09:03:53.207Z,18.00
2022-08-17T09:05:13.395Z,20.50
2022-08-17T09:05:51.560Z,18.20
2022-08-17T09:06:50.733Z,16.90
2022-08-17T09:07:51.131Z,14.80
2022-08-17T09:08:52.239Z,16.90
2022-08-17T09:09:54.171Z,14.00
2022-08-17T09:10:51.824Z,16.20
2022-08-17T09:12:02.124Z,18.30
2022-08-17T09:12:53.366Z,20.20
2022-08-17T09:13:54.366Z,18.30
2022-08-17T09:14:52.995Z,16.20
2022-08-17T09:15:54.141Z,18.70
2022-08-17T09:16:53.537Z,15.80
2022-08-17T09:18:08.880Z,15.60
2022-08-17T09:19:01.563Z,14.90
2022-08-17T09:19:55.396Z,20.80
2022-08-17T09:20:54.648Z,15.90
2022-08-17T09:21:54.865Z,19.70
2022-08-17T09:22:55.226Z,17.90
2022-08-17T09:23:55.460Z,16.90
2022-08-17T09:24:55.732Z,15.80
2022-08-17T09:25:55.990Z,13.00
2022-08-17T09:26:56.259Z,12.30
2022-08-17T09:27:56.490Z,15.30
2022-08-17T09:28:56.832Z,15.50
2022-08-17T09:29:57.092Z,13.20
2022-08-17T09:30:57.365Z,13.00
2022-08-17T09:31:57.600Z,16.90
2022-08-17T09:32:57.828Z,15.10
2022-08-17T09:33:58.162Z,14.00
2022-08-17T09:34:58.353Z,19.20
2022-08-17T09:35:58.589Z,17.90
2022-08-17T09:36:58.832Z,20.10
2022-08-17T09:37:59.110Z,20.50
2022-08-17T09:38:59.471Z,19.00
2022-08-17T09:39:59.793Z,19.40
2022-08-17T09:40:59.965Z,18.40
2022-08-17T09:42:00.194Z,21.80
2022-08-17T09:43:00.489Z,16.90
2022-08-17T09:44:00.759Z,15.70
2022-08-17T09:45:00.995Z,16.70
2022-08-17T09:46:01.235Z,13.90
2022-08-17T09:47:01.491Z,16.10
2022-08-17T09:48:01.738Z,13.80
2022-08-17T09:49:02.006Z,19.00
2022-08-17T09:50:02.263Z,15.80
2022-08-17T09:51:04.527Z,20.00
2022-08-17T09:52:03.211Z,22.30
2022-08-17T09:53:03.158Z,18.30
2022-08-17T09:54:34.759Z,20.30
2022-08-17T09:55:04.622Z,22.00
2022-08-17T09:56:03.855Z,20.20
2022-08-17T09:57:27.900Z,17.90
2022-08-17T09:58:05.419Z,20.10
2022-08-17T09:59:05.072Z,17.80
2022-08-17T10:00:05.079Z,24.10
2022-08-17T10:01:05.464Z,20.30
2022-08-17T10:02:05.745Z,18.00
2022-08-17T10:03:05.997Z,18.60
2022-08-17T10:04:06.172Z,16.00
2022-08-17T10:05:06.521Z,18.60
2022-08-17T10:06:06.925Z,16.20
2022-08-17T10:07:07.056Z,19.40
2022-08-17T10:08:07.331Z,20.60
2022-08-17T10:09:07.604Z,19.80
2022-08-17T10:10:13.561Z,19.00
2022-08-17T10:11:09.104Z,21.10
2022-08-17T10:12:08.774Z,18.50
2022-08-17T10:13:09.582Z,17.80
2022-08-17T10:14:36.742Z,14.60
2022-08-17T10:15:10.220Z,16.90
2022-08-17T10:16:09.608Z,15.90
2022-08-17T10:17:09.777Z,15.40
2022-08-17T10:18:10.006Z,18.70
2022-08-17T10:19:10.450Z,19.40
2022-08-17T10:20:10.554Z,15.80
2022-08-17T10:21:10.780Z,17.30
2022-08-17T10:22:32.974Z,15.90
2022-08-17T10:23:12.431Z,20.20
2022-08-17T10:24:11.729Z,17.90
2022-08-17T10:25:23.424Z,18.30
2022-08-17T10:26:13.237Z,15.10
2022-08-17T10:27:12.483Z,15.50
2022-08-17T10:28:19.737Z,19.80
2022-08-17T10:29:14.123Z,18.80
2022-08-17T10:30:13.442Z,15.90
2022-08-17T10:32:15.004Z,16.10
2022-08-17T10:33:14.233Z,19.70
2022-08-17T10:34:14.454Z,15.60
2022-08-17T10:35:14.692Z,18.80
2022-08-17T10:36:14.963Z,20.00
2022-08-17T10:37:15.182Z,22.00
2022-08-17T10:38:15.477Z,19.20
2022-08-17T10:39:15.850Z,22.50
2022-08-17T10:40:16.089Z,16.40
2022-08-17T10:41:16.327Z,18.40
2022-08-17T10:42:16.573Z,22.60
2022-08-17T10:43:17.829Z,24.00
2022-08-17T10:44:40.272Z,20.80
2022-08-17T10:45:18.388Z,18.60
2022-08-17T10:46:30.079Z,21.90
2022-08-17T10:47:18.931Z,21.90
2022-08-17T10:48:18.265Z,21.60
2022-08-17T10:49:18.491Z,17.60
2022-08-17T10:50:18.760Z,23.20
2022-08-17T10:51:19.045Z,19.90
2022-08-17T10:52:19.279Z,22.20
2022-08-17T10:53:20.059Z,18.50
2022-08-17T10:54:19.864Z,11.90
2022-08-17T10:55:20.149Z,14.50
2022-08-17T10:56:20.414Z,13.60
2022-08-17T10:57:20.649Z,15.60
2022-08-17T10:58:20.952Z,14.50
2022-08-17T10:59:21.182Z,11.10
2022-08-17T11:00:27.047Z,13.70
2022-08-17T11:01:22.780Z,15.20
2022-08-17T11:02:22.014Z,15.90
2022-08-17T11:03:22.275Z,17.20
2022-08-17T11:04:22.715Z,14.90
2022-08-17T11:05:22.774Z,13.70
2022-08-17T11:06:23.082Z,12.60
2022-08-17T11:07:23.288Z,14.70
2022-08-17T11:08:23.579Z,12.80
2022-08-17T11:09:23.843Z,15.60
2022-08-17T11:10:24.120Z,13.40
2022-08-17T11:11:24.380Z,15.90
2022-08-17T11:12:24.656Z,17.80
2022-08-17T11:13:24.924Z,14.00
2022-08-17T11:14:25.190Z,19.60
2022-08-17T11:15:25.453Z,14.80
2022-08-17T11:16:25.806Z,16.70
2022-08-17T11:17:26.078Z,18.00
2022-08-17T11:18:26.355Z,14.40
2022-08-17T11:19:26.657Z,13.40
2022-08-17T11:20:26.876Z,16.00
2022-08-17T11:21:27.153Z,13.70
2022-08-17T11:22:32.774Z,15.20
2022-08-17T11:23:28.748Z,14.50
2022-08-17T11:24:27.965Z,15.10
2022-08-17T11:25:28.311Z,14.00
2022-08-17T11:26:28.615Z,11.90
2022-08-17T11:27:28.867Z,14.70
2022-08-17T11:28:29.119Z,14.10
2022-08-17T11:29:29.456Z,10.00
2022-08-17T11:30:29.720Z,11.10
2022-08-17T11:31:37.801Z,11.40
2022-08-17T11:32:31.287Z,10.20
2022-08-17T11:33:30.589Z,12.30
2022-08-17T11:34:30.854Z,10.50
2022-08-17T11:35:31.108Z,12.90
2022-08-17T11:36:31.489Z,12.50
2022-08-17T11:37:31.720Z,9.70
2022-08-17T11:38:31.970Z,9.20
2022-08-17T11:39:32.220Z,11.60
2022-08-17T11:40:32.457Z,12.60
2022-08-17T11:41:32.750Z,10.30
2022-08-17T11:42:33.026Z,9.80
2022-08-17T11:43:33.295Z,12.60
2022-08-17T11:44:33.552Z,9.40
2022-08-17T11:45:33.789Z,12.70
2022-08-17T11:46:34.097Z,14.50
2022-08-17T11:47:34.364Z,10.10
2022-08-17T11:48:34.967Z,9.80
2022-08-17T11:49:34.998Z,16.40
2022-08-17T11:50:35.296Z,12.80
2022-08-17T11:51:35.948Z,10.90
2022-08-17T11:52:35.820Z,16.30
2022-08-17T11:53:36.067Z,17.90
2022-08-17T11:54:36.382Z,9.80
2022-08-17T11:55:39.660Z,9.50
2022-08-17T11:56:37.829Z,9.60
2022-08-17T11:57:37.135Z,9.10
2022-08-17T11:58:37.353Z,10.70
2022-08-17T11:59:37.585Z,10.40
2022-08-17T12:00:37.846Z,11.80
2022-08-17T12:01:38.161Z,15.60
2022-08-17T12:02:38.373Z,12.20
2022-08-17T12:03:38.627Z,10.40
2022-08-17T12:04:38.918Z,10.50
2022-08-17T12:05:39.150Z,8.90
2022-08-17T12:06:39.507Z,10.20
2022-08-17T12:07:39.840Z,10.20
2022-08-17T12:08:40.131Z,11.30
2022-08-17T12:09:41.238Z,10.30
2022-08-17T12:10:40.612Z,10.80
2022-08-17T12:11:57.775Z,8.40
2022-08-17T12:12:42.324Z,11.80
2022-08-17T12:13:41.449Z,9.00
2022-08-17T12:15:11.159Z,10.10
2022-08-17T12:15:42.985Z,9.50
2022-08-17T12:16:42.275Z,7.90
2022-08-17T12:17:43.152Z,10.50
2022-08-17T12:18:42.861Z,10.20
2022-08-17T12:19:43.119Z,8.40
2022-08-17T12:20:43.511Z,9.50
2022-08-17T12:21:43.766Z,8.80
2022-08-17T12:22:44.037Z,12.50
2022-08-17T12:23:44.778Z,14.10
2022-08-17T12:24:44.635Z,11.00
2022-08-17T12:25:44.926Z,9.30
2022-08-17T12:26:52.192Z,8.80
2022-08-17T12:28:04.530Z,10.80
2022-08-17T12:28:46.757Z,8.60
2022-08-17T12:29:45.927Z,11.20
2022-08-17T12:30:46.597Z,10.50
2022-08-17T12:31:46.546Z,10.10
2022-08-17T12:32:47.813Z,8.60
2022-08-17T12:33:47.112Z,10.00
2022-08-17T12:34:47.353Z,8.00
2022-08-17T12:35:47.705Z,9.10
2022-08-17T12:36:49.082Z,11.80
2022-08-17T12:37:48.380Z,9.90
2022-08-17T12:38:48.688Z,10.80
2022-08-17T12:39:48.932Z,11.40
2022-08-17T12:40:49.209Z,8.50
2022-08-17T12:41:50.188Z,9.40
2022-08-17T12:42:49.740Z,8.80
2022-08-17T12:43:49.943Z,7.10
2022-08-17T12:44:50.637Z,10.50
2022-08-17T12:45:50.415Z,8.80
2022-08-17T12:46:50.749Z,8.40
2022-08-17T12:47:51.288Z,9.40
2022-08-17T12:48:59.014Z,9.60
2022-08-17T12:49:52.457Z,9.60
2022-08-17T12:50:51.702Z,10.00
2022-08-17T12:51:51.944Z,11.80
2022-08-17T12:52:52.242Z,8.60
2022-08-17T12:53:53.544Z,12.10
2022-08-17T12:54:52.827Z,10.70
2022-08-17T12:55:53.080Z,10.20
2022-08-17T12:56:53.267Z,11.50
2022-08-17T12:57:53.547Z,8.70
2022-08-17T12:58:53.806Z,12.20